Barbados Meteorological Services
Auto gathered TAF list
Powered by Apparatus software
For Flight MT2714
Contact Number 1-(246)-535-0021/2/3/4/5/6
WEB: http://www.barbadosweather.org

**********************************************

2018/02/23 18:06
TAF TBPB 231700Z 2318/2418 08024KT 9999 SCT016 BKN034
TEMPO 2318/2403 08024G36KT 4000 SHRA RA BKN014


**********************************************
2018/02/23 18:27
TAF TAF TAPA 231700Z 2318/2418 07011KT 9999 SCT018 PROB30
TEMPO 2318/2402 SHRA


**********************************************
2018/02/23 18:18
TAF LPPR 231700Z 2318/2418 31005KT CAVOK
BECMG 2318/2320 VRB03KT
BECMG 2322/2401 09008KT
BECMG 2413/2415 31008KT


**********************************************
2018/02/23 18:18
TAF LPPD 231700Z 2318/2418 24012KT 9999 SCT018 SCT030
BECMG 2321/2323 20017KT 6000 -RA SCT012 BKN025
TEMPO 2323/2404 21018G28KT 2000 +RA SCT004 BKN008 FEW022TCU
BECMG 2404/2407 30008KT 9999 NSW SCT015 SCT030
TEMPO 2407/2414 31015G25KT 5000 SHRA BKN012 FEW020CB


**********************************************
2018/02/23 18:07
TAF LPLA 231701Z 2318/2418 33010KT 9999 SCT020 BKN030
TEMPO 2318/2321 7000 -RA SCT012 BKN020 PROB30
TEMPO 2318/2320 3000 RA SCT008 BKN014
TEMPO 2406/2418 7000 -SHRA SCT018 BKN025
BECMG 2408/2410 33018KT


**********************************************


**********************************************
2018/02/23 18:18
TAF TAF LPAZ 231700Z 2318/2424 23012KT 9999 SCT018
BECMG 2323/2402 20018KT 6000 -RA SCT012 BKN025
TEMPO 2402/2407 20020G30KT 2000 +RA SCT004 BKN008 FEW022TCU
BECMG 2407/2409 30013KT 9999 NSW SCT015 SCT030
TEMPO 2409/2415 30018G28KT 5000 SHRA BKN012 FEW020CB
BECMG 2419/2421 33013KT


**********************************************
2018/02/23 18:27
TAF LEVT 231700Z 2318/2418 02006KT 8000 SCT030 TX08/2414Z TNM03/2407Z PROB40
TEMPO 2318/2412 3000 BR BKN010 PROB40
TEMPO 2402/2412 0300 FZFG VV001


**********************************************
2018/02/23 18:28
TAF LEMD 231700Z 2318/2424 VRB05KT CAVOK TX12/2415Z TNM05/2407Z


**********************************************
2018/02/23 18:43
TAF ELLX 231700Z 2318/2424 05010G20KT CAVOK
TEMPO 2410/2422 06015G30KT


**********************************************
2018/02/23 18:33
TAF
AMD EGPK 231826Z 2318/2418 13009KT 9999 FEW030 PROB30 2404/2409 7000


**********************************************
2018/02/23 18:15
TAF EGLL 231652Z 2318/2424 08008KT 9999 SCT030 PROB30
TEMPO 2403/2410 8000 PROB30
TEMPO 2414/2420 08015G25KT


**********************************************
2018/02/23 19:37
TAF COR EGKK 231932Z 2319/2424 08012KT 9999 SCT030
TEMPO 2319/2410 8000


**********************************************
2018/02/23 18:15
TAF EGFF 231657Z 2318/2418 09008KT 9999 SCT030


**********************************************
2018/02/23 18:15
TAF EGCC 231657Z 2318/2424 11008KT 9999 FEW020 PROB30 2403/2409 8000


**********************************************
2018/02/23 19:45
TAF
AMD TAF
AMD EDDF 231941Z 2319/2424 04012KT CAVOK
TEMPO 2319/2323 03015G25KT
BECMG 2409/2411 05015G25KT
BECMG 2417/2419 04010KT


**********************************************
2018/02/23 18:28
TAF EBBR 231702Z 2318/2424 06010KT CAVOK PROB30
TEMPO 2411/2416 06015G25KT


**********************************************